sensor_id;sensor_type;location;lat;lon;timestamp;temperature;humidity
46416;DHT22;32620;51.704;7.822;2024-03-22T00:01:50;9.90;80.50
46416;DHT22;32620;51.704;7.822;2024-03-22T00:04:16;9.80;83.00
46416;DHT22;32620;51.704;7.822;2024-03-22T00:06:43;9.80;86.70
46416;DHT22;32620;51.704;7.822;2024-03-22T00:09:10;9.80;90.00
46416;DHT22;32620;51.704;7.822;2024-03-22T00:11:35;9.80;93.30
46416;DHT22;32620;51.704;7.822;2024-03-22T00:14:02;9.80;95.20
46416;DHT22;32620;51.704;7.822;2024-03-22T00:16:28;9.70;97.50
46416;DHT22;32620;51.704;7.822;2024-03-22T00:18:53;9.70;99.90
46416;DHT22;32620;51.704;7.822;2024-03-22T00:21:19;9.70;99.90
46416;DHT22;32620;51.704;7.822;2024-03-22T00:23:45;9.80;99.90
46416;DHT22;32620;51.704;7.822;2024-03-22T00:26:11;9.80;99.90
46416;DHT22;32620;51.704;7.822;2024-03-22T00:28:36;9.80;99.90
46416;DHT22;32620;51.704;7.822;2024-03-22T00:31:02;9.90;99.90
46416;DHT22;32620;51.704;7.822;2024-03-22T00:33:27;9.90;99.90
46416;DHT22;32620;51.704;7.822;2024-03-22T00:35:53;9.90;99.90
46416;DHT22;32620;51.704;7.822;2024-03-22T00:38:18;9.90;99.90
46416;DHT22;32620;51.704;7.822;2024-03-22T00:40:44;10.00;99.90
46416;DHT22;32620;51.704;7.822;2024-03-22T00:43:10;10.10;99.90
46416;DHT22;32620;51.704;7.822;2024-03-22T00:45:35;10.10;99.90
46416;DHT22;32620;51.704;7.822;2024-03-22T00:48:01;10.10;99.90
46416;DHT22;32620;51.704;7.822;2024-03-22T00:50:26;10.10;99.90
46416;DHT22;32620;51.704;7.822;2024-03-22T00:52:55;10.10;99.90
46416;DHT22;32620;51.704;7.822;2024-03-22T00:55:22;10.10;99.90
46416;DHT22;32620;51.704;7.822;2024-03-22T00:57:48;10.10;99.90
46416;DHT22;32620;51.704;7.822;2024-03-22T01:00:14;10.10;99.10
46416;DHT22;32620;51.704;7.822;2024-03-22T01:02:40;10.20;97.70
46416;DHT22;32620;51.704;7.822;2024-03-22T01:05:07;10.10;96.30
46416;DHT22;32620;51.704;7.822;2024-03-22T01:07:33;10.10;96.60
46416;DHT22;32620;51.704;7.822;2024-03-22T01:09:58;10.10;96.70
46416;DHT22;32620;51.704;7.822;2024-03-22T01:12:24;10.10;96.40
46416;DHT22;32620;51.704;7.822;2024-03-22T01:14:49;10.20;94.80
46416;DHT22;32620;51.704;7.822;2024-03-22T01:17:15;10.10;94.90
46416;DHT22;32620;51.704;7.822;2024-03-22T01:19:40;10.10;94.50
46416;DHT22;32620;51.704;7.822;2024-03-22T01:22:06;10.20;93.90
46416;DHT22;32620;51.704;7.822;2024-03-22T01:24:32;10.20;92.20
46416;DHT22;32620;51.704;7.822;2024-03-22T01:26:57;10.20;91.80
46416;DHT22;32620;51.704;7.822;2024-03-22T01:29:23;10.20;91.90
46416;DHT22;32620;51.704;7.822;2024-03-22T01:31:48;10.10;92.80
46416;DHT22;32620;51.704;7.822;2024-03-22T01:34:14;10.20;92.40
46416;DHT22;32620;51.704;7.822;2024-03-22T01:36:40;10.20;92.70
46416;DHT22;32620;51.704;7.822;2024-03-22T01:39:05;10.20;93.30
46416;DHT22;32620;51.704;7.822;2024-03-22T01:41:31;10.20;93.30
46416;DHT22;32620;51.704;7.822;2024-03-22T01:43:58;10.20;92.30
46416;DHT22;32620;51.704;7.822;2024-03-22T01:46:24;10.20;92.80
46416;DHT22;32620;51.704;7.822;2024-03-22T01:48:50;10.20;91.40
46416;DHT22;32620;51.704;7.822;2024-03-22T01:51:16;10.20;92.20
46416;DHT22;32620;51.704;7.822;2024-03-22T01:53:42;10.20;90.60
46416;DHT22;32620;51.704;7.822;2024-03-22T01:56:08;10.20;90.50
46416;DHT22;32620;51.704;7.822;2024-03-22T01:58:33;10.20;90.40
46416;DHT22;32620;51.704;7.822;2024-03-22T02:00:59;10.20;92.10
46416;DHT22;32620;51.704;7.822;2024-03-22T02:03:24;10.30;91.90
46416;DHT22;32620;51.704;7.822;2024-03-22T02:05:50;10.30;90.60
46416;DHT22;32620;51.704;7.822;2024-03-22T02:08:16;10.30;91.20
46416;DHT22;32620;51.704;7.822;2024-03-22T02:10:42;10.30;92.40
46416;DHT22;32620;51.704;7.822;2024-03-22T02:13:08;10.20;92.00
46416;DHT22;32620;51.704;7.822;2024-03-22T02:15:33;10.30;93.10
46416;DHT22;32620;51.704;7.822;2024-03-22T02:17:59;10.30;95.40
46416;DHT22;32620;51.704;7.822;2024-03-22T02:20:24;10.30;96.20
46416;DHT22;32620;51.704;7.822;2024-03-22T02:22:51;10.30;96.90
46416;DHT22;32620;51.704;7.822;2024-03-22T02:25:16;10.30;99.10
46416;DHT22;32620;51.704;7.822;2024-03-22T02:27:42;10.30;98.90
46416;DHT22;32620;51.704;7.822;2024-03-22T02:30:08;10.30;99.90
46416;DHT22;32620;51.704;7.822;2024-03-22T02:32:34;10.40;99.90
46416;DHT22;32620;51.704;7.822;2024-03-22T02:34:59;10.40;99.90
46416;DHT22;32620;51.704;7.822;2024-03-22T02:37:25;10.40;99.90
46416;DHT22;32620;51.704;7.822;2024-03-22T02:39:50;10.40;99.90
46416;DHT22;32620;51.704;7.822;2024-03-22T02:42:16;10.50;99.90
46416;DHT22;32620;51.704;7.822;2024-03-22T02:44:41;10.40;99.90
46416;DHT22;32620;51.704;7.822;2024-03-22T02:47:09;10.40;99.90
46416;DHT22;32620;51.704;7.822;2024-03-22T02:49:35;10.40;99.90
46416;DHT22;32620;51.704;7.822;2024-03-22T02:52:01;10.40;99.90
46416;DHT22;32620;51.704;7.822;2024-03-22T02:54:27;10.40;99.90
46416;DHT22;32620;51.704;7.822;2024-03-22T02:56:52;10.50;99.90
46416;DHT22;32620;51.704;7.822;2024-03-22T02:59:18;10.50;99.90
46416;DHT22;32620;51.704;7.822;2024-03-22T03:01:43;10.50;99.90
46416;DHT22;32620;51.704;7.822;2024-03-22T03:04:09;10.50;99.90
46416;DHT22;32620;51.704;7.822;2024-03-22T03:06:34;10.50;99.90
46416;DHT22;32620;51.704;7.822;2024-03-22T03:09:00;10.60;99.90
46416;DHT22;32620;51.704;7.822;2024-03-22T03:11:25;10.60;99.90
46416;DHT22;32620;51.704;7.822;2024-03-22T03:13:51;10.60;99.90
46416;DHT22;32620;51.704;7.822;2024-03-22T03:16:16;10.60;99.90
46416;DHT22;32620;51.704;7.822;2024-03-22T03:18:42;10.50;99.90
46416;DHT22;32620;51.704;7.822;2024-03-22T03:21:07;10.60;99.90
46416;DHT22;32620;51.704;7.822;2024-03-22T03:23:33;10.50;99.90
46416;DHT22;32620;51.704;7.822;2024-03-22T03:25:59;10.50;99.90
46416;DHT22;32620;51.704;7.822;2024-03-22T03:28:24;10.60;99.90
46416;DHT22;32620;51.704;7.822;2024-03-22T03:30:51;10.60;99.90
46416;DHT22;32620;51.704;7.822;2024-03-22T03:33:17;10.60;99.90
46416;DHT22;32620;51.704;7.822;2024-03-22T03:35:46;10.60;99.90
46416;DHT22;32620;51.704;7.822;2024-03-22T03:38:12;10.70;99.90
46416;DHT22;32620;51.704;7.822;2024-03-22T03:40:37;10.70;99.90
46416;DHT22;32620;51.704;7.822;2024-03-22T03:43:03;10.80;99.90
46416;DHT22;32620;51.704;7.822;2024-03-22T03:45:28;10.90;99.90
46416;DHT22;32620;51.704;7.822;2024-03-22T03:47:54;10.90;99.90
46416;DHT22;32620;51.704;7.822;2024-03-22T03:50:19;11.00;99.90
46416;DHT22;32620;51.704;7.822;2024-03-22T03:52:45;11.00;99.90
46416;DHT22;32620;51.704;7.822;2024-03-22T03:55:10;11.00;99.90
46416;DHT22;32620;51.704;7.822;2024-03-22T03:57:36;11.00;99.90
46416;DHT22;32620;51.704;7.822;2024-03-22T04:00:02;11.10;99.90
46416;DHT22;32620;51.704;7.822;2024-03-22T04:02:28;11.10;99.90
46416;DHT22;32620;51.704;7.822;2024-03-22T04:04:53;11.00;99.10
46416;DHT22;32620;51.704;7.822;2024-03-22T04:07:20;11.00;99.60
46416;DHT22;32620;51.704;7.822;2024-03-22T04:09:46;11.00;99.90
46416;DHT22;32620;51.704;7.822;2024-03-22T04:12:12;10.90;99.90
46416;DHT22;32620;51.704;7.822;2024-03-22T04:14:37;10.90;99.90
46416;DHT22;32620;51.704;7.822;2024-03-22T04:17:03;10.90;99.90
46416;DHT22;32620;51.704;7.822;2024-03-22T04:19:28;10.90;99.90
46416;DHT22;32620;51.704;7.822;2024-03-22T04:21:54;10.90;99.90
46416;DHT22;32620;51.704;7.822;2024-03-22T04:24:19;10.90;99.90
46416;DHT22;32620;51.704;7.822;2024-03-22T04:26:45;10.90;99.90
46416;DHT22;32620;51.704;7.822;2024-03-22T04:29:10;11.00;99.90
46416;DHT22;32620;51.704;7.822;2024-03-22T04:31:36;10.90;99.90
46416;DHT22;32620;51.704;7.822;2024-03-22T04:34:02;10.90;99.90
46416;DHT22;32620;51.704;7.822;2024-03-22T04:36:28;10.90;99.90
46416;DHT22;32620;51.704;7.822;2024-03-22T04:38:53;10.80;99.90
46416;DHT22;32620;51.704;7.822;2024-03-22T04:41:19;10.80;99.90
46416;DHT22;32620;51.704;7.822;2024-03-22T04:43:44;10.80;99.90
46416;DHT22;32620;51.704;7.822;2024-03-22T04:46:10;10.80;99.90
46416;DHT22;32620;51.704;7.822;2024-03-22T04:48:35;10.70;99.90
46416;DHT22;32620;51.704;7.822;2024-03-22T04:51:01;10.80;99.90
46416;DHT22;32620;51.704;7.822;2024-03-22T04:53:27;10.80;99.90
46416;DHT22;32620;51.704;7.822;2024-03-22T04:55:53;10.80;99.90
46416;DHT22;32620;51.704;7.822;2024-03-22T04:58:20;10.80;99.90
46416;DHT22;32620;51.704;7.822;2024-03-22T05:00:47;10.80;99.90
46416;DHT22;32620;51.704;7.822;2024-03-22T05:03:13;10.80;99.90
46416;DHT22;32620;51.704;7.822;2024-03-22T05:05:39;10.80;99.90
46416;DHT22;32620;51.704;7.822;2024-03-22T05:08:05;10.90;99.90
46416;DHT22;32620;51.704;7.822;2024-03-22T05:10:31;10.90;99.90
46416;DHT22;32620;51.704;7.822;2024-03-22T05:12:57;10.90;99.90
46416;DHT22;32620;51.704;7.822;2024-03-22T05:15:23;10.90;99.90
46416;DHT22;32620;51.704;7.822;2024-03-22T05:17:51;10.90;99.90
46416;DHT22;32620;51.704;7.822;2024-03-22T05:20:17;10.90;99.90
46416;DHT22;32620;51.704;7.822;2024-03-22T05:22:42;10.90;99.90
46416;DHT22;32620;51.704;7.822;2024-03-22T05:25:09;10.90;99.90
46416;DHT22;32620;51.704;7.822;2024-03-22T05:27:35;11.00;99.90
46416;DHT22;32620;51.704;7.822;2024-03-22T05:30:01;11.00;99.90
46416;DHT22;32620;51.704;7.822;2024-03-22T05:32:26;11.00;99.90
46416;DHT22;32620;51.704;7.822;2024-03-22T05:34:53;11.00;99.90
46416;DHT22;32620;51.704;7.822;2024-03-22T05:37:18;11.00;99.90
46416;DHT22;32620;51.704;7.822;2024-03-22T05:39:44;11.10;99.90
46416;DHT22;32620;51.704;7.822;2024-03-22T05:42:09;11.10;99.90
46416;DHT22;32620;51.704;7.822;2024-03-22T05:44:35;11.10;99.90
46416;DHT22;32620;51.704;7.822;2024-03-22T05:47:01;11.10;99.90
46416;DHT22;32620;51.704;7.822;2024-03-22T05:49:26;11.10;99.90
46416;DHT22;32620;51.704;7.822;2024-03-22T05:51:52;11.20;99.90
46416;DHT22;32620;51.704;7.822;2024-03-22T05:54:18;11.30;99.90
46416;DHT22;32620;51.704;7.822;2024-03-22T05:56:43;11.30;99.90
46416;DHT22;32620;51.704;7.822;2024-03-22T05:59:09;11.30;99.90
46416;DHT22;32620;51.704;7.822;2024-03-22T06:01:36;11.40;99.30
46416;DHT22;32620;51.704;7.822;2024-03-22T06:04:04;11.40;97.10
46416;DHT22;32620;51.704;7.822;2024-03-22T06:06:29;11.50;96.30
46416;DHT22;32620;51.704;7.822;2024-03-22T06:08:55;11.50;91.60
46416;DHT22;32620;51.704;7.822;2024-03-22T06:11:22;11.60;90.00
46416;DHT22;32620;51.704;7.822;2024-03-22T06:13:48;11.60;84.40
46416;DHT22;32620;51.704;7.822;2024-03-22T06:16:14;11.70;78.20
46416;DHT22;32620;51.704;7.822;2024-03-22T06:18:40;11.70;76.30
46416;DHT22;32620;51.704;7.822;2024-03-22T06:21:06;11.70;66.70
46416;DHT22;32620;51.704;7.822;2024-03-22T06:23:32;11.80;59.00
46416;DHT22;32620;51.704;7.822;2024-03-22T06:25:58;11.80;58.90
46416;DHT22;32620;51.704;7.822;2024-03-22T06:28:27;11.90;51.50
46416;DHT22;32620;51.704;7.822;2024-03-22T06:30:53;11.90;46.20
46416;DHT22;32620;51.704;7.822;2024-03-22T06:33:19;11.90;41.70
46416;DHT22;32620;51.704;7.822;2024-03-22T06:35:46;12.00;35.50
46416;DHT22;32620;51.704;7.822;2024-03-22T06:38:11;12.00;29.90
46416;DHT22;32620;51.704;7.822;2024-03-22T06:40:37;12.00;29.90
46416;DHT22;32620;51.704;7.822;2024-03-22T06:43:03;12.00;25.00
46416;DHT22;32620;51.704;7.822;2024-03-22T06:45:28;12.00;26.20
46416;DHT22;32620;51.704;7.822;2024-03-22T06:47:54;12.10;19.10
46416;DHT22;32620;51.704;7.822;2024-03-22T06:50:20;12.10;9.30
46416;DHT22;32620;51.704;7.822;2024-03-22T06:52:50;12.20;11.10
46416;DHT22;32620;51.704;7.822;2024-03-22T06:55:17;12.20;7.00
46416;DHT22;32620;51.704;7.822;2024-03-22T06:57:43;12.20;1.00
46416;DHT22;32620;51.704;7.822;2024-03-22T07:00:10;12.30;1.00
46416;DHT22;32620;51.704;7.822;2024-03-22T07:02:36;12.30;1.00
46416;DHT22;32620;51.704;7.822;2024-03-22T07:05:02;12.30;1.00
46416;DHT22;32620;51.704;7.822;2024-03-22T07:07:29;12.40;1.00
46416;DHT22;32620;51.704;7.822;2024-03-22T07:09:54;12.40;1.00
46416;DHT22;32620;51.704;7.822;2024-03-22T07:12:21;12.50;1.00
46416;DHT22;32620;51.704;7.822;2024-03-22T07:14:47;12.50;1.00
46416;DHT22;32620;51.704;7.822;2024-03-22T07:17:13;12.60;99.90
46416;DHT22;32620;51.704;7.822;2024-03-22T07:19:38;12.70;99.90
46416;DHT22;32620;51.704;7.822;2024-03-22T07:22:04;12.70;1.00
46416;DHT22;32620;51.704;7.822;2024-03-22T07:24:30;12.80;64.40
46416;DHT22;32620;51.704;7.822;2024-03-22T07:26:55;12.80;99.90
46416;DHT22;32620;51.704;7.822;2024-03-22T07:29:21;12.80;1.00
46416;DHT22;32620;51.704;7.822;2024-03-22T07:31:46;12.90;1.00
46416;DHT22;32620;51.704;7.822;2024-03-22T07:34:12;12.90;1.00
46416;DHT22;32620;51.704;7.822;2024-03-22T07:36:38;12.80;99.90
46416;DHT22;32620;51.704;7.822;2024-03-22T07:39:04;12.80;99.90
46416;DHT22;32620;51.704;7.822;2024-03-22T07:41:32;12.90;97.50
46416;DHT22;32620;51.704;7.822;2024-03-22T07:43:59;12.90;1.00
46416;DHT22;32620;51.704;7.822;2024-03-22T07:46:26;13.00;1.00
46416;DHT22;32620;51.704;7.822;2024-03-22T07:48:52;13.00;99.90
46416;DHT22;32620;51.704;7.822;2024-03-22T07:51:17;13.00;99.90
46416;DHT22;32620;51.704;7.822;2024-03-22T07:53:43;13.10;99.90
46416;DHT22;32620;51.704;7.822;2024-03-22T07:56:09;13.10;1.00
46416;DHT22;32620;51.704;7.822;2024-03-22T07:58:34;13.20;1.00
46416;DHT22;32620;51.704;7.822;2024-03-22T08:01:00;13.30;99.90
46416;DHT22;32620;51.704;7.822;2024-03-22T08:03:25;13.30;99.90
46416;DHT22;32620;51.704;7.822;2024-03-22T08:05:51;13.40;99.90
46416;DHT22;32620;51.704;7.822;2024-03-22T08:08:16;13.40;99.90
46416;DHT22;32620;51.704;7.822;2024-03-22T08:10:43;13.50;99.90
46416;DHT22;32620;51.704;7.822;2024-03-22T08:13:08;13.60;1.00
46416;DHT22;32620;51.704;7.822;2024-03-22T08:15:35;13.60;1.00
46416;DHT22;32620;51.704;7.822;2024-03-22T08:18:01;13.50;99.90
46416;DHT22;32620;51.704;7.822;2024-03-22T08:20:26;13.60;99.90
46416;DHT22;32620;51.704;7.822;2024-03-22T08:22:52;13.70;99.90
46416;DHT22;32620;51.704;7.822;2024-03-22T08:25:17;13.80;99.90
46416;DHT22;32620;51.704;7.822;2024-03-22T08:27:45;13.90;65.80
46416;DHT22;32620;51.704;7.822;2024-03-22T08:30:11;14.00;1.00
46416;DHT22;32620;51.704;7.822;2024-03-22T08:32:37;14.00;1.00
46416;DHT22;32620;51.704;7.822;2024-03-22T08:35:05;14.10;1.00
46416;DHT22;32620;51.704;7.822;2024-03-22T08:37:34;14.10;1.00
46416;DHT22;32620;51.704;7.822;2024-03-22T08:40:00;14.20;1.00
46416;DHT22;32620;51.704;7.822;2024-03-22T08:42:25;14.20;99.90
46416;DHT22;32620;51.704;7.822;2024-03-22T08:44:51;14.20;99.90
46416;DHT22;32620;51.704;7.822;2024-03-22T08:47:17;14.00;99.90
46416;DHT22;32620;51.704;7.822;2024-03-22T08:49:43;13.80;99.90
46416;DHT22;32620;51.704;7.822;2024-03-22T08:52:09;13.70;99.90
46416;DHT22;32620;51.704;7.822;2024-03-22T08:54:35;13.70;99.90
46416;DHT22;32620;51.704;7.822;2024-03-22T08:57:00;13.70;99.90
46416;DHT22;32620;51.704;7.822;2024-03-22T08:59:27;13.70;99.90
46416;DHT22;32620;51.704;7.822;2024-03-22T09:01:52;13.70;99.90
46416;DHT22;32620;51.704;7.822;2024-03-22T09:04:18;13.70;99.90
46416;DHT22;32620;51.704;7.822;2024-03-22T09:06:44;13.70;99.90
46416;DHT22;32620;51.704;7.822;2024-03-22T09:09:10;13.80;99.90
46416;DHT22;32620;51.704;7.822;2024-03-22T09:11:36;14.10;99.90
46416;DHT22;32620;51.704;7.822;2024-03-22T09:14:02;14.20;99.90
46416;DHT22;32620;51.704;7.822;2024-03-22T09:16:27;14.30;99.90
46416;DHT22;32620;51.704;7.822;2024-03-22T09:18:53;14.50;99.90
46416;DHT22;32620;51.704;7.822;2024-03-22T09:21:18;14.60;99.90
46416;DHT22;32620;51.704;7.822;2024-03-22T09:23:44;14.60;73.50
46416;DHT22;32620;51.704;7.822;2024-03-22T09:26:09;14.40;14.00
46416;DHT22;32620;51.704;7.822;2024-03-22T09:28:35;14.50;9.40
46416;DHT22;32620;51.704;7.822;2024-03-22T09:31:07;14.40;3.80
46416;DHT22;32620;51.704;7.822;2024-03-22T09:33:34;14.50;5.70
46416;DHT22;32620;51.704;7.822;2024-03-22T09:35:59;14.50;1.00
46416;DHT22;32620;51.704;7.822;2024-03-22T09:38:25;14.60;12.60
46416;DHT22;32620;51.704;7.822;2024-03-22T09:40:50;14.60;1.00
46416;DHT22;32620;51.704;7.822;2024-03-22T09:45:46;14.70;1.00
46416;DHT22;32620;51.704;7.822;2024-03-22T09:48:12;14.80;1.00
46416;DHT22;32620;51.704;7.822;2024-03-22T09:50:40;14.80;1.00
46416;DHT22;32620;51.704;7.822;2024-03-22T09:53:06;14.90;1.00
46416;DHT22;32620;51.704;7.822;2024-03-22T09:55:33;15.00;1.00
46416;DHT22;32620;51.704;7.822;2024-03-22T09:58:01;15.20;1.00
46416;DHT22;32620;51.704;7.822;2024-03-22T10:00:28;15.30;1.00
46416;DHT22;32620;51.704;7.822;2024-03-22T10:02:53;15.00;1.00
46416;DHT22;32620;51.704;7.822;2024-03-22T10:05:20;14.70;1.00
46416;DHT22;32620;51.704;7.822;2024-03-22T10:07:45;14.70;1.00
46416;DHT22;32620;51.704;7.822;2024-03-22T10:10:11;14.90;1.00
46416;DHT22;32620;51.704;7.822;2024-03-22T10:12:37;15.00;1.00
46416;DHT22;32620;51.704;7.822;2024-03-22T10:15:05;15.00;1.00
46416;DHT22;32620;51.704;7.822;2024-03-22T10:17:31;15.10;1.00
46416;DHT22;32620;51.704;7.822;2024-03-22T10:19:56;15.20;1.00
46416;DHT22;32620;51.704;7.822;2024-03-22T10:22:22;15.10;1.00
46416;DHT22;32620;51.704;7.822;2024-03-22T10:24:50;15.00;1.00
46416;DHT22;32620;51.704;7.822;2024-03-22T10:27:16;15.00;1.00
46416;DHT22;32620;51.704;7.822;2024-03-22T10:29:42;15.20;1.00
46416;DHT22;32620;51.704;7.822;2024-03-22T10:32:08;15.60;1.00
46416;DHT22;32620;51.704;7.822;2024-03-22T10:34:34;15.80;99.90
46416;DHT22;32620;51.704;7.822;2024-03-22T10:39:27;16.50;99.90
46416;DHT22;32620;51.704;7.822;2024-03-22T10:41:53;16.80;99.90
46416;DHT22;32620;51.704;7.822;2024-03-22T10:44:19;17.00;99.90
46416;DHT22;32620;51.704;7.822;2024-03-22T10:46:47;17.40;99.90
46416;DHT22;32620;51.704;7.822;2024-03-22T10:49:18;17.00;99.90
46416;DHT22;32620;51.704;7.822;2024-03-22T10:51:47;16.70;99.90
46416;DHT22;32620;51.704;7.822;2024-03-22T10:54:20;16.50;99.90
46416;DHT22;32620;51.704;7.822;2024-03-22T10:56:48;16.50;99.90
46416;DHT22;32620;51.704;7.822;2024-03-22T10:59:18;16.10;99.90
46416;DHT22;32620;51.704;7.822;2024-03-22T11:01:46;16.20;99.90
46416;DHT22;32620;51.704;7.822;2024-03-22T11:04:11;16.10;99.90
46416;DHT22;32620;51.704;7.822;2024-03-22T11:06:37;16.00;99.90
46416;DHT22;32620;51.704;7.822;2024-03-22T11:09:03;16.10;99.90
46416;DHT22;32620;51.704;7.822;2024-03-22T11:11:30;16.20;99.90
46416;DHT22;32620;51.704;7.822;2024-03-22T11:13:56;16.00;99.90
46416;DHT22;32620;51.704;7.822;2024-03-22T11:16:22;16.00;99.90
46416;DHT22;32620;51.704;7.822;2024-03-22T11:18:48;16.00;99.90
46416;DHT22;32620;51.704;7.822;2024-03-22T11:21:14;16.10;99.90
46416;DHT22;32620;51.704;7.822;2024-03-22T11:23:40;16.20;99.90
46416;DHT22;32620;51.704;7.822;2024-03-22T11:26:06;16.30;99.90
46416;DHT22;32620;51.704;7.822;2024-03-22T11:28:33;16.20;99.90
46416;DHT22;32620;51.704;7.822;2024-03-22T11:30:59;16.10;99.90
46416;DHT22;32620;51.704;7.822;2024-03-22T11:33:24;16.30;99.90
46416;DHT22;32620;51.704;7.822;2024-03-22T11:35:52;16.10;99.90
46416;DHT22;32620;51.704;7.822;2024-03-22T11:38:18;16.10;99.90
46416;DHT22;32620;51.704;7.822;2024-03-22T11:40:44;16.10;99.90
46416;DHT22;32620;51.704;7.822;2024-03-22T11:43:11;15.90;99.90
46416;DHT22;32620;51.704;7.822;2024-03-22T11:45:40;15.90;99.90
46416;DHT22;32620;51.704;7.822;2024-03-22T11:48:06;15.90;99.90
46416;DHT22;32620;51.704;7.822;2024-03-22T11:50:32;15.80;99.90
46416;DHT22;32620;51.704;7.822;2024-03-22T11:52:58;15.60;99.90
46416;DHT22;32620;51.704;7.822;2024-03-22T11:55:27;15.60;99.90
46416;DHT22;32620;51.704;7.822;2024-03-22T11:57:53;15.40;99.90
46416;DHT22;32620;51.704;7.822;2024-03-22T12:00:19;15.20;99.90
46416;DHT22;32620;51.704;7.822;2024-03-22T12:02:45;15.10;99.90
46416;DHT22;32620;51.704;7.822;2024-03-22T12:05:11;14.90;1.00
46416;DHT22;32620;51.704;7.822;2024-03-22T12:07:37;14.90;1.00
46416;DHT22;32620;51.704;7.822;2024-03-22T12:10:03;14.90;1.00
46416;DHT22;32620;51.704;7.822;2024-03-22T12:12:29;14.90;1.00
46416;DHT22;32620;51.704;7.822;2024-03-22T12:14:55;14.80;1.00
46416;DHT22;32620;51.704;7.822;2024-03-22T12:17:21;14.70;1.00
46416;DHT22;32620;51.704;7.822;2024-03-22T12:19:46;14.60;61.80
46416;DHT22;32620;51.704;7.822;2024-03-22T12:22:12;14.50;99.90
46416;DHT22;32620;51.704;7.822;2024-03-22T12:24:38;14.40;99.90
46416;DHT22;32620;51.704;7.822;2024-03-22T12:27:04;14.40;99.90
46416;DHT22;32620;51.704;7.822;2024-03-22T12:29:33;14.30;99.90
46416;DHT22;32620;51.704;7.822;2024-03-22T12:31:59;14.10;1.00
46416;DHT22;32620;51.704;7.822;2024-03-22T12:34:27;14.10;1.00
46416;DHT22;32620;51.704;7.822;2024-03-22T12:36:53;14.00;1.00
46416;DHT22;32620;51.704;7.822;2024-03-22T12:39:18;13.80;99.90
46416;DHT22;32620;51.704;7.822;2024-03-22T12:41:44;13.70;99.90
46416;DHT22;32620;51.704;7.822;2024-03-22T12:44:09;13.70;99.90
46416;DHT22;32620;51.704;7.822;2024-03-22T12:46:35;13.70;1.00
46416;DHT22;32620;51.704;7.822;2024-03-22T12:49:00;13.50;99.90
46416;DHT22;32620;51.704;7.822;2024-03-22T12:51:26;13.60;99.90
46416;DHT22;32620;51.704;7.822;2024-03-22T12:53:51;13.40;99.90
46416;DHT22;32620;51.704;7.822;2024-03-22T12:56:17;13.30;99.90
46416;DHT22;32620;51.704;7.822;2024-03-22T12:58:43;13.30;1.00
46416;DHT22;32620;51.704;7.822;2024-03-22T13:01:09;13.30;1.00
46416;DHT22;32620;51.704;7.822;2024-03-22T13:03:36;13.30;67.40
46416;DHT22;32620;51.704;7.822;2024-03-22T13:06:03;13.20;1.00
46416;DHT22;32620;51.704;7.822;2024-03-22T13:08:29;13.20;1.00
46416;DHT22;32620;51.704;7.822;2024-03-22T13:10:54;13.20;5.90
46416;DHT22;32620;51.704;7.822;2024-03-22T13:13:20;13.10;71.50
46416;DHT22;32620;51.704;7.822;2024-03-22T13:15:45;13.10;99.90
46416;DHT22;32620;51.704;7.822;2024-03-22T13:18:12;13.00;1.00
46416;DHT22;32620;51.704;7.822;2024-03-22T13:20:38;12.80;1.00
46416;DHT22;32620;51.704;7.822;2024-03-22T13:23:04;12.80;99.90
46416;DHT22;32620;51.704;7.822;2024-03-22T13:25:30;12.80;99.90
46416;DHT22;32620;51.704;7.822;2024-03-22T13:27:55;12.80;1.00
46416;DHT22;32620;51.704;7.822;2024-03-22T13:30:21;12.90;99.90
46416;DHT22;32620;51.704;7.822;2024-03-22T13:32:47;12.90;1.00
46416;DHT22;32620;51.704;7.822;2024-03-22T13:35:13;12.80;1.00
46416;DHT22;32620;51.704;7.822;2024-03-22T13:37:40;12.90;99.90
46416;DHT22;32620;51.704;7.822;2024-03-22T13:40:07;12.80;99.90
46416;DHT22;32620;51.704;7.822;2024-03-22T13:42:34;12.90;94.40
46416;DHT22;32620;51.704;7.822;2024-03-22T13:44:59;13.00;1.00
46416;DHT22;32620;51.704;7.822;2024-03-22T13:47:26;13.10;99.90
46416;DHT22;32620;51.704;7.822;2024-03-22T13:49:53;13.10;1.00
46416;DHT22;32620;51.704;7.822;2024-03-22T13:52:18;13.00;99.90
46416;DHT22;32620;51.704;7.822;2024-03-22T13:54:46;12.90;99.90
46416;DHT22;32620;51.704;7.822;2024-03-22T13:57:11;12.70;1.00
46416;DHT22;32620;51.704;7.822;2024-03-22T13:59:37;12.70;99.90
46416;DHT22;32620;51.704;7.822;2024-03-22T14:02:04;12.60;1.00
46416;DHT22;32620;51.704;7.822;2024-03-22T14:04:29;12.60;1.00
46416;DHT22;32620;51.704;7.822;2024-03-22T14:06:55;12.60;1.00
46416;DHT22;32620;51.704;7.822;2024-03-22T14:09:21;12.60;1.00
46416;DHT22;32620;51.704;7.822;2024-03-22T14:11:46;12.60;99.90
46416;DHT22;32620;51.704;7.822;2024-03-22T14:14:14;12.50;99.90
46416;DHT22;32620;51.704;7.822;2024-03-22T14:16:40;12.40;1.00
46416;DHT22;32620;51.704;7.822;2024-03-22T14:19:07;12.30;99.90
46416;DHT22;32620;51.704;7.822;2024-03-22T14:21:35;12.30;95.50
46416;DHT22;32620;51.704;7.822;2024-03-22T14:24:01;12.30;99.90
46416;DHT22;32620;51.704;7.822;2024-03-22T14:26:28;12.20;99.90
46416;DHT22;32620;51.704;7.822;2024-03-22T14:28:54;12.20;1.00
46416;DHT22;32620;51.704;7.822;2024-03-22T14:31:19;12.20;1.00
46416;DHT22;32620;51.704;7.822;2024-03-22T14:33:45;12.10;1.00
46416;DHT22;32620;51.704;7.822;2024-03-22T14:36:10;12.00;35.90
46416;DHT22;32620;51.704;7.822;2024-03-22T14:38:38;11.90;67.90
46416;DHT22;32620;51.704;7.822;2024-03-22T14:41:03;11.90;98.50
46416;DHT22;32620;51.704;7.822;2024-03-22T14:43:29;11.80;99.90
46416;DHT22;32620;51.704;7.822;2024-03-22T14:45:57;11.70;99.90
46416;DHT22;32620;51.704;7.822;2024-03-22T14:48:23;11.60;99.90
46416;DHT22;32620;51.704;7.822;2024-03-22T14:50:49;11.60;99.90
46416;DHT22;32620;51.704;7.822;2024-03-22T14:53:16;11.50;99.90
46416;DHT22;32620;51.704;7.822;2024-03-22T14:55:59;11.50;99.90
46416;DHT22;32620;51.704;7.822;2024-03-22T14:58:26;11.40;99.90
46416;DHT22;32620;51.704;7.822;2024-03-22T15:00:53;11.40;99.90
46416;DHT22;32620;51.704;7.822;2024-03-22T15:03:19;11.40;99.90
46416;DHT22;32620;51.704;7.822;2024-03-22T15:05:44;11.30;99.90
46416;DHT22;32620;51.704;7.822;2024-03-22T15:08:10;11.30;99.90
46416;DHT22;32620;51.704;7.822;2024-03-22T15:10:37;11.20;99.90
46416;DHT22;32620;51.704;7.822;2024-03-22T15:13:03;11.10;99.90
46416;DHT22;32620;51.704;7.822;2024-03-22T15:15:28;11.20;99.90
46416;DHT22;32620;51.704;7.822;2024-03-22T15:17:54;11.20;99.90
46416;DHT22;32620;51.704;7.822;2024-03-22T15:20:20;11.10;99.90
46416;DHT22;32620;51.704;7.822;2024-03-22T15:22:45;11.10;99.90
46416;DHT22;32620;51.704;7.822;2024-03-22T15:25:11;11.10;99.90
46416;DHT22;32620;51.704;7.822;2024-03-22T15:27:36;11.00;99.90
46416;DHT22;32620;51.704;7.822;2024-03-22T15:30:02;11.00;99.90
46416;DHT22;32620;51.704;7.822;2024-03-22T15:32:31;11.00;99.90